createdAt,value
2022-08-07T00:01:43.276Z,99907.50
2022-08-07T00:06:29.461Z,99921.72
2022-08-07T00:11:47.777Z,99917.06
2022-08-07T00:16:57.106Z,99907.38
2022-08-07T00:22:03.310Z,99884.16
2022-08-07T00:27:07.232Z,99891.78
2022-08-07T00:32:13.433Z,99876.47
2022-08-07T00:37:19.505Z,99899.22
2022-08-07T00:42:25.454Z,99923.97
2022-08-07T00:48:07.778Z,99918.88
2022-08-07T00:52:54.266Z,99899.63
2022-08-07T00:57:57.276Z,99917.94
2022-08-07T01:03:00.059Z,99900.22
2022-08-07T01:08:03.853Z,99890.50
2022-08-07T01:13:06.605Z,99872.09
2022-08-07T01:18:09.513Z,99926.84
2022-08-07T01:23:13.629Z,99928.06
2022-08-07T01:28:17.333Z,99850.06
2022-08-07T01:33:21.113Z,99929.59
2022-08-07T01:38:25.942Z,99888.91
2022-08-07T01:43:38.000Z,99918.59
2022-08-07T01:48:46.771Z,99924.94
2022-08-07T01:54:13.010Z,99904.69
2022-08-07T01:59:45.265Z,99871.53
2022-08-07T02:04:57.412Z,99891.47
2022-08-07T02:10:01.245Z,99918.59
2022-08-07T02:15:06.725Z,99911.59
2022-08-07T02:20:17.098Z,99909.34
2022-08-07T02:26:10.519Z,99924.09
2022-08-07T02:30:48.774Z,99898.59
2022-08-07T02:36:28.478Z,99915.78
2022-08-07T02:41:21.822Z,99914.97
2022-08-07T02:46:27.129Z,99920.59
2022-08-07T02:51:49.988Z,99938.50
2022-08-07T02:56:56.848Z,99900.25
2022-08-07T03:02:02.406Z,99913.00
2022-08-07T03:07:10.350Z,99902.47
2022-08-07T03:12:16.158Z,99932.47
2022-08-07T03:17:26.633Z,99902.06
2022-08-07T03:22:30.789Z,99893.38
2022-08-07T03:27:58.820Z,99783.13
2022-08-07T03:32:58.548Z,99913.25
2022-08-07T03:38:04.913Z,99911.31
2022-08-07T03:43:13.869Z,99900.81
2022-08-07T03:48:17.247Z,99926.78
2022-08-07T03:53:19.896Z,99901.94
2022-08-07T03:59:07.936Z,99933.16
2022-08-07T04:04:05.696Z,99943.47
2022-08-07T04:09:15.205Z,99944.00
2022-08-07T04:14:37.450Z,99917.38
2022-08-07T04:19:52.412Z,99952.97
2022-08-07T04:24:58.468Z,99888.19
2022-08-07T04:30:04.551Z,99904.47
2022-08-07T04:35:11.347Z,99906.72
2022-08-07T04:40:14.146Z,99890.88
2022-08-07T04:45:44.462Z,99891.06
2022-08-07T04:50:53.049Z,99920.78
2022-08-07T04:58:16.617Z,99891.06
2022-08-07T05:02:04.123Z,99945.44
2022-08-07T05:07:20.503Z,99926.81
2022-08-07T05:12:51.465Z,99951.13
2022-08-07T05:18:08.714Z,99909.59
2022-08-07T05:23:16.809Z,99963.22
2022-08-07T05:28:23.399Z,99968.72
2022-08-07T05:33:31.718Z,99952.38
2022-08-07T05:38:59.732Z,99923.91
2022-08-07T05:44:11.693Z,99832.53
2022-08-07T05:49:15.617Z,99884.00
2022-08-07T05:54:30.675Z,99943.97
2022-08-07T05:59:58.007Z,100002.06
2022-08-07T06:05:15.686Z,99965.50
2022-08-07T06:10:31.025Z,99973.72
2022-08-07T06:15:42.567Z,99960.06
2022-08-07T06:20:49.789Z,99971.78
2022-08-07T06:26:02.226Z,100003.41
2022-08-07T06:31:04.743Z,99975.84
2022-08-07T06:36:13.132Z,99899.34
2022-08-07T06:42:01.952Z,99930.78
2022-08-07T06:47:10.170Z,99936.81
2022-08-07T06:52:18.109Z,99989.72
2022-08-07T06:57:39.609Z,99979.50
2022-08-07T07:02:57.572Z,99959.34
2022-08-07T07:08:06.962Z,99977.88
2022-08-07T07:13:43.461Z,99986.97
2022-08-07T07:18:50.790Z,100002.13
2022-08-07T07:24:09.694Z,99971.88
2022-08-07T07:29:39.888Z,99960.69
2022-08-07T07:34:46.112Z,100002.56
2022-08-07T07:39:55.577Z,100003.69
2022-08-07T07:44:59.304Z,100020.56
2022-08-07T07:50:33.455Z,100010.63
2022-08-07T07:55:37.496Z,99990.13
2022-08-07T08:00:42.162Z,99959.75
2022-08-07T08:05:55.792Z,100006.81
2022-08-07T08:12:00.024Z,99960.25
2022-08-07T08:17:55.842Z,100016.31
2022-08-07T08:22:55.730Z,99986.91
2022-08-07T08:28:03.809Z,99976.44
2022-08-07T08:38:38.113Z,100002.56
2022-08-07T08:44:02.455Z,99989.06
2022-08-07T08:49:32.690Z,99996.81
2022-08-07T08:54:43.756Z,99982.78
2022-08-07T08:59:54.828Z,99961.03
2022-08-07T09:05:05.582Z,99998.19
2022-08-07T09:10:18.223Z,100009.16
2022-08-07T09:16:22.816Z,100005.25
2022-08-07T09:21:00.809Z,99985.84
2022-08-07T09:26:28.496Z,99975.66
2022-08-07T09:31:49.282Z,99974.00
2022-08-07T09:37:13.246Z,99987.81
2022-08-07T09:42:37.209Z,99988.44
2022-08-07T09:48:14.673Z,99964.63
2022-08-07T09:53:25.377Z,99959.16
2022-08-07T09:58:58.217Z,99973.59
2022-08-07T10:04:33.083Z,99964.47
2022-08-07T10:10:00.808Z,99958.03
2022-08-07T10:15:44.391Z,99956.03
2022-08-07T10:20:55.984Z,99959.63
2022-08-07T10:26:33.553Z,99950.50
2022-08-07T10:31:49.534Z,99947.13
2022-08-07T10:37:13.751Z,99944.03
2022-08-07T10:42:41.292Z,99952.22
2022-08-07T10:48:03.324Z,99924.22
2022-08-07T10:53:58.422Z,99935.16
2022-08-07T10:59:21.188Z,99930.03
2022-08-07T11:04:58.536Z,99907.34
2022-08-07T11:10:06.962Z,99917.44
2022-08-07T11:15:21.356Z,99907.03
2022-08-07T11:20:55.771Z,99913.63
2022-08-07T11:26:26.565Z,99914.28
2022-08-07T11:31:53.932Z,99917.16
2022-08-07T11:37:38.592Z,99906.03
2022-08-07T11:42:59.115Z,99900.19
2022-08-07T11:48:18.033Z,99894.47
2022-08-07T11:54:10.458Z,99898.25
2022-08-07T12:00:10.249Z,99896.19
2022-08-07T12:05:28.645Z,99888.59
2022-08-07T12:11:08.376Z,99875.03
2022-08-07T12:16:30.677Z,99879.97
2022-08-07T12:22:38.898Z,99889.97
2022-08-07T12:28:08.578Z,99884.59
2022-08-07T12:33:18.882Z,99855.69
2022-08-07T12:38:38.511Z,99885.75
2022-08-07T12:44:02.677Z,99873.59
2022-08-07T12:49:44.743Z,99856.38
2022-08-07T12:55:05.456Z,99876.88
2022-08-07T13:00:16.495Z,99873.84
2022-08-07T13:06:05.032Z,99877.03
2022-08-07T13:12:02.337Z,99848.69
2022-08-07T13:17:10.765Z,99851.69
2022-08-07T13:22:31.727Z,99844.34
2022-08-07T13:28:14.172Z,99849.34
2022-08-07T13:34:33.919Z,99844.06
2022-08-07T13:39:49.178Z,99838.81
2022-08-07T13:44:55.330Z,99785.75
2022-08-07T13:50:34.652Z,99796.97
2022-08-07T13:55:36.967Z,99834.38
2022-08-07T14:00:54.078Z,99830.97
2022-08-07T14:05:58.096Z,99827.97
2022-08-07T14:11:15.095Z,99821.91
2022-08-07T14:16:26.848Z,99836.56
2022-08-07T14:22:01.456Z,99820.50
2022-08-07T14:28:11.224Z,99822.53
2022-08-07T14:32:37.340Z,99818.94
2022-08-07T14:38:03.392Z,99837.88
2022-08-07T14:43:55.499Z,99828.31
2022-08-07T14:48:35.096Z,99828.63
2022-08-07T14:54:03.736Z,99836.13
2022-08-07T14:59:13.413Z,99826.44
2022-08-07T15:04:40.740Z,99813.44
2022-08-07T15:10:02.014Z,99842.63
2022-08-07T15:15:21.384Z,99844.53
2022-08-07T15:20:38.584Z,99840.25
2022-08-07T15:25:58.977Z,99852.59
2022-08-07T15:31:06.572Z,99831.22
2022-08-07T15:36:10.008Z,99847.94
2022-08-07T15:42:42.094Z,99834.72
2022-08-07T15:46:49.932Z,99820.09
2022-08-07T15:57:01.811Z,99829.72
2022-08-07T16:02:07.539Z,99823.66
2022-08-07T16:08:29.181Z,99829.47
2022-08-07T16:12:39.025Z,99836.00
2022-08-07T16:18:08.262Z,99833.72
2022-08-07T16:23:12.023Z,99830.72
2022-08-07T16:30:08.793Z,99836.38
2022-08-07T16:34:02.799Z,99847.22
2022-08-07T16:39:33.689Z,99856.84
2022-08-07T16:45:24.674Z,99841.69
2022-08-07T16:51:13.454Z,99863.91
2022-08-07T16:56:12.813Z,99872.00
2022-08-07T17:01:50.378Z,99876.06
2022-08-07T17:07:03.117Z,99879.75
2022-08-07T17:12:44.216Z,99896.28
2022-08-07T17:17:47.864Z,99891.28
2022-08-07T17:23:18.507Z,99905.22
2022-08-07T17:28:33.365Z,99894.22
2022-08-07T17:34:09.369Z,99900.72
2022-08-07T17:39:15.454Z,99925.59
2022-08-07T17:44:33.603Z,99913.69
2022-08-07T17:49:45.588Z,99906.69
2022-08-07T17:54:55.658Z,99935.50
2022-08-07T18:00:03.910Z,99963.28
2022-08-07T18:05:21.238Z,99970.22
2022-08-07T18:10:34.003Z,99977.84
2022-08-07T18:15:42.116Z,99972.34
2022-08-07T18:21:38.232Z,99979.53
2022-08-07T18:26:47.728Z,99986.72
2022-08-07T18:32:11.436Z,100015.00
2022-08-07T18:38:57.911Z,100025.13
2022-08-07T18:43:11.493Z,100035.22
2022-08-07T18:50:19.730Z,100040.31
2022-08-07T18:54:07.083Z,100045.84
2022-08-07T18:59:58.951Z,100024.28
2022-08-07T19:05:17.622Z,100045.22
2022-08-07T19:10:23.588Z,100051.56
2022-08-07T19:16:05.702Z,100050.59
2022-08-07T19:21:56.168Z,100057.16
2022-08-07T19:28:57.777Z,100058.94
2022-08-07T19:32:44.751Z,100022.06
2022-08-07T19:37:55.258Z,100041.53
2022-08-07T19:43:00.202Z,100035.69
2022-08-07T19:48:02.830Z,100053.94
2022-08-07T19:54:29.923Z,100055.53
2022-08-07T19:58:36.128Z,99929.81
2022-08-07T20:03:42.112Z,100015.59
2022-08-07T20:08:50.901Z,100042.38
2022-08-07T20:13:55.730Z,100037.84
2022-08-07T20:19:04.486Z,100072.94
2022-08-07T20:24:15.522Z,100076.22
2022-08-07T20:29:49.419Z,100075.41
2022-08-07T20:34:51.211Z,100078.81
2022-08-07T20:40:02.597Z,100052.59
2022-08-07T20:45:33.371Z,100087.75
2022-08-07T20:50:35.998Z,100101.34
2022-08-07T20:55:39.303Z,100097.28
2022-08-07T21:00:54.400Z,100087.03
2022-08-07T21:06:21.654Z,100105.41
2022-08-07T21:11:46.184Z,100084.59
2022-08-07T21:18:00.692Z,100088.91
2022-08-07T21:22:28.157Z,100119.44
2022-08-07T21:27:39.914Z,100119.44
2022-08-07T21:33:13.824Z,100112.25
2022-08-07T21:38:30.338Z,100114.38
2022-08-07T21:43:55.853Z,100098.91
2022-08-07T21:49:18.404Z,100104.00
2022-08-07T21:54:35.653Z,100118.13
2022-08-07T22:00:05.253Z,100127.91
2022-08-07T22:05:12.324Z,100130.34
2022-08-07T22:10:33.638Z,100085.63
2022-08-07T22:16:38.768Z,100133.84
2022-08-07T22:21:07.093Z,100136.09
2022-08-07T22:26:29.102Z,100132.16
2022-08-07T22:32:00.108Z,100132.34
2022-08-07T22:37:21.158Z,100145.09
2022-08-07T22:42:30.552Z,100139.91
2022-08-07T22:48:03.346Z,100148.13
2022-08-07T22:54:06.430Z,100151.91
2022-08-07T22:58:58.042Z,100148.72
2022-08-07T23:04:57.829Z,100150.41
2022-08-07T23:10:41.155Z,100159.03
2022-08-07T23:16:44.698Z,100143.06
2022-08-07T23:21:36.671Z,100148.91
2022-08-07T23:26:50.522Z,100154.97
2022-08-07T23:34:18.928Z,100124.72
2022-08-07T23:38:01.269Z,100164.81
2022-08-07T23:43:37.575Z,100168.38
2022-08-07T23:49:15.564Z,100168.28
2022-08-07T23:54:44.010Z,100171.13
